createdAt,value
2024-05-09T00:00:40.672Z,90.4540
2024-05-09T00:01:47.944Z,90.2403
2024-05-09T00:02:54.199Z,89.8466
2024-05-09T00:04:02.456Z,90.5272
2024-05-09T00:05:09.421Z,90.0603
2024-05-09T00:06:15.546Z,90.3395
2024-05-09T00:07:21.709Z,90.6188
2024-05-09T00:08:28.884Z,90.7988
2024-05-09T00:09:35.216Z,90.2632
2024-05-09T00:10:41.673Z,90.7240
2024-05-09T00:11:48.011Z,90.4417
2024-05-09T00:12:54.293Z,90.7240
2024-05-09T00:14:00.907Z,90.6004
2024-05-09T00:15:07.253Z,90.4646
2024-05-09T00:16:13.339Z,90.2586
2024-05-09T00:17:19.578Z,90.5608
2024-05-09T00:18:25.873Z,90.4860
2024-05-09T00:19:32.265Z,91.0536
2024-05-09T00:20:40.841Z,90.7561
2024-05-09T00:21:50.448Z,90.9209
2024-05-09T00:22:57.232Z,91.0719
2024-05-09T00:24:03.221Z,90.9087
2024-05-09T00:25:09.710Z,90.8064
2024-05-09T00:26:15.837Z,90.5516
2024-05-09T00:27:22.047Z,90.8675
2024-05-09T00:28:28.814Z,91.5679
2024-05-09T00:29:35.041Z,91.5938
2024-05-09T00:30:41.273Z,91.2505
2024-05-09T00:32:03.187Z,91.9280
2024-05-09T00:33:10.780Z,91.6762
2024-05-09T00:34:18.859Z,91.7372
2024-05-09T00:35:25.936Z,91.4244
2024-05-09T00:36:32.661Z,91.5023
2024-05-09T00:38:05.047Z,91.4031
2024-05-09T00:39:12.180Z,91.3787
2024-05-09T00:40:27.086Z,91.2779
2024-05-09T00:41:31.763Z,90.9621
2024-05-09T00:42:38.613Z,90.8492
2024-05-09T00:43:45.535Z,90.9224
2024-05-09T00:44:57.188Z,91.4336
2024-05-09T00:46:05.409Z,91.0857
2024-05-09T00:47:15.474Z,90.8675
2024-05-09T00:48:22.763Z,91.2200
2024-05-09T00:49:31.556Z,91.4290
2024-05-09T00:50:38.810Z,91.6991
2024-05-09T00:51:49.414Z,91.8608
2024-05-09T00:52:56.623Z,91.4931
2024-05-09T00:54:17.906Z,91.3558
2024-05-09T00:55:25.517Z,91.8730
2024-05-09T00:56:38.508Z,91.9829
2024-05-09T00:57:45.591Z,91.6259
2024-05-09T00:58:52.210Z,90.9300
2024-05-09T01:00:09.899Z,91.1742
2024-05-09T01:01:19.610Z,91.1269
2024-05-09T01:02:41.205Z,91.5389
2024-05-09T01:03:55.081Z,91.1467
2024-05-09T01:05:02.020Z,91.8975
2024-05-09T01:06:09.603Z,91.5938
2024-05-09T01:07:17.720Z,91.2016
2024-05-09T01:08:25.548Z,91.3924
2024-05-09T01:09:35.692Z,91.1452
2024-05-09T01:10:45.189Z,90.2174
2024-05-09T01:11:55.690Z,91.1040
2024-05-09T01:13:05.106Z,90.9041
2024-05-09T01:14:13.670Z,90.9392
2024-05-09T01:15:36.728Z,91.0231
2024-05-09T01:16:44.728Z,91.0124
2024-05-09T01:18:06.646Z,90.9987
2024-05-09T01:20:41.677Z,90.5699
2024-05-09T01:21:49.958Z,90.6600
2024-05-09T01:23:00.022Z,91.0643
2024-05-09T01:24:10.414Z,91.0552
2024-05-09T01:25:24.028Z,90.8629
2024-05-09T01:26:32.195Z,90.1076
2024-05-09T01:27:41.202Z,90.0877
2024-05-09T01:28:49.185Z,90.3761
2024-05-09T01:32:19.649Z,90.2724
2024-05-09T01:33:26.567Z,91.4794
2024-05-09T01:34:36.052Z,90.5608
2024-05-09T01:35:43.636Z,90.5318
2024-05-09T01:39:11.727Z,90.1015
2024-05-09T01:43:27.820Z,91.1147
2024-05-09T01:44:42.551Z,90.6783
2024-05-09T01:45:50.686Z,90.6249
2024-05-09T01:47:28.193Z,90.0526
2024-05-09T01:51:20.006Z,90.3090
2024-05-09T01:52:29.705Z,89.7734
2024-05-09T01:53:40.593Z,90.6889
2024-05-09T01:55:40.583Z,90.2113
2024-05-09T02:04:39.678Z,89.5399
2024-05-09T02:06:25.931Z,90.7607
2024-05-09T02:07:31.911Z,90.4311
2024-05-09T02:08:50.123Z,90.1396
2024-05-09T02:10:00.264Z,90.4448
2024-05-09T02:11:06.976Z,90.1289
2024-05-09T02:12:13.689Z,90.0740
2024-05-09T02:13:25.341Z,90.3960
2024-05-09T02:14:38.766Z,90.2159
2024-05-09T02:19:34.471Z,89.4301
2024-05-09T02:20:41.943Z,90.4692
2024-05-09T02:21:58.592Z,90.6645
2024-05-09T02:23:21.720Z,89.9565
2024-05-09T02:25:48.593Z,89.4286
2024-05-09T02:26:55.613Z,90.0206
2024-05-09T02:28:26.754Z,90.7027
2024-05-09T02:29:41.757Z,89.6666
2024-05-09T02:31:16.720Z,90.7607
2024-05-09T02:32:26.993Z,89.6040
2024-05-09T02:33:56.973Z,89.8634
2024-05-09T02:35:04.602Z,90.7210
2024-05-09T02:43:25.973Z,91.1635
2024-05-09T02:44:42.754Z,90.4921
2024-05-09T02:48:21.934Z,90.6600
2024-05-09T02:49:37.807Z,90.3136
2024-05-09T02:52:22.792Z,91.0185
2024-05-09T02:53:42.771Z,90.8995
2024-05-09T02:54:57.628Z,90.8812
2024-05-09T02:56:10.823Z,90.7835
2024-05-09T02:57:52.771Z,91.0811
2024-05-09T03:03:50.460Z,91.0643
2024-05-09T03:05:02.837Z,91.0399
2024-05-09T03:08:38.977Z,91.2505
2024-05-09T03:09:59.099Z,90.9804
2024-05-09T03:13:23.131Z,90.2754
2024-05-09T03:19:44.481Z,91.0689
2024-05-09T03:21:07.366Z,91.3207
2024-05-09T03:23:05.799Z,91.1406
2024-05-09T03:26:39.721Z,91.2093
2024-05-09T03:28:10.271Z,90.9865
2024-05-09T03:30:15.452Z,90.8751
2024-05-09T03:31:26.275Z,91.3115
2024-05-09T03:32:59.316Z,91.2917
2024-05-09T03:37:38.079Z,91.5160
2024-05-09T03:41:30.498Z,91.4763
2024-05-09T03:52:51.967Z,91.0414
2024-05-09T03:54:24.210Z,90.9758
2024-05-09T03:55:45.915Z,91.5297
2024-05-09T03:58:04.904Z,91.2612
2024-05-09T03:59:32.839Z,90.9392
2024-05-09T04:01:14.384Z,91.6136
2024-05-09T04:02:20.909Z,91.5541
2024-05-09T04:03:27.364Z,91.6640
2024-05-09T04:04:33.886Z,91.6915
2024-05-09T04:05:41.078Z,91.1376
2024-05-09T04:06:49.374Z,91.9234
2024-05-09T04:07:56.403Z,91.9158
2024-05-09T04:09:02.438Z,91.8044
2024-05-09T04:10:11.278Z,91.5084
2024-05-09T04:11:20.946Z,91.1818
2024-05-09T04:12:27.938Z,91.7540
2024-05-09T04:13:34.123Z,91.8608
2024-05-09T04:14:40.280Z,91.3893
2024-05-09T04:15:46.409Z,91.1192
2024-05-09T04:16:52.517Z,91.1040
2024-05-09T04:17:58.847Z,90.9224
2024-05-09T04:19:05.053Z,90.9682
2024-05-09T04:20:21.059Z,91.0811
2024-05-09T04:21:23.134Z,91.1192
2024-05-09T04:22:29.082Z,90.9758
2024-05-09T04:23:35.875Z,91.2749
2024-05-09T04:24:43.118Z,90.6371
2024-05-09T04:25:50.052Z,90.6523
2024-05-09T04:27:11.069Z,90.5272
2024-05-09T04:28:17.109Z,91.0323
2024-05-09T04:29:23.354Z,90.6294
2024-05-09T04:30:36.758Z,90.9987
2024-05-09T04:31:41.448Z,90.8522
2024-05-09T04:32:47.740Z,90.3899
2024-05-09T04:33:53.956Z,90.1991
2024-05-09T04:35:00.240Z,91.0506
2024-05-09T04:36:06.438Z,90.9773
2024-05-09T04:37:13.357Z,91.2413
2024-05-09T04:38:20.449Z,90.9545
2024-05-09T04:39:26.639Z,90.5562
2024-05-09T04:40:36.071Z,90.4540
2024-05-09T04:41:43.700Z,90.9957
2024-05-09T04:42:50.399Z,90.9636
2024-05-09T04:43:56.629Z,90.9392
2024-05-09T04:45:02.776Z,90.3410
2024-05-09T04:46:08.821Z,90.8019
2024-05-09T04:47:15.876Z,90.6737
2024-05-09T04:48:22.220Z,90.3868
2024-05-09T04:49:28.612Z,90.3304
2024-05-09T04:50:38.190Z,90.4448
2024-05-09T04:51:47.441Z,90.1472
2024-05-09T04:52:53.568Z,90.4601
2024-05-09T04:53:59.765Z,90.7805
2024-05-09T04:55:05.938Z,90.6386
2024-05-09T04:56:12.127Z,90.0053
2024-05-09T04:57:18.203Z,89.6712
2024-05-09T04:58:24.476Z,90.4463
2024-05-09T04:59:30.599Z,90.2907
2024-05-09T05:00:38.302Z,89.7047
2024-05-09T05:01:45.806Z,89.3874
2024-05-09T05:02:52.195Z,90.3166
2024-05-09T05:03:58.646Z,89.9733
2024-05-09T05:05:05.040Z,90.4189
2024-05-09T05:06:13.884Z,90.3349
2024-05-09T05:07:20.042Z,90.1534
2024-05-09T05:08:26.130Z,89.8695
2024-05-09T05:09:32.338Z,89.7902
2024-05-09T05:10:38.492Z,89.7581
2024-05-09T05:11:44.654Z,90.9712
2024-05-09T05:12:51.436Z,90.7881
2024-05-09T05:13:57.527Z,90.4005
2024-05-09T05:15:03.774Z,90.1076
2024-05-09T05:16:10.174Z,90.9758
2024-05-09T05:17:16.804Z,90.7942
2024-05-09T05:18:24.051Z,90.1198
2024-05-09T05:19:31.254Z,90.6615
2024-05-09T05:20:37.954Z,90.1762
2024-05-09T05:21:44.061Z,90.3822
2024-05-09T05:22:51.034Z,89.9321
2024-05-09T05:23:57.125Z,89.9931
2024-05-09T05:25:03.110Z,90.5608
2024-05-09T05:26:09.172Z,90.2403
2024-05-09T05:27:15.355Z,90.0511
2024-05-09T05:28:21.532Z,90.3899
2024-05-09T05:29:27.853Z,90.4051
2024-05-09T05:30:35.015Z,90.1747
2024-05-09T05:31:41.622Z,90.1762
2024-05-09T05:32:47.908Z,89.6300
2024-05-09T05:33:54.183Z,90.7286
2024-05-09T05:35:00.341Z,91.1650
2024-05-09T05:36:06.488Z,90.3853
2024-05-09T05:37:12.568Z,90.7927
2024-05-09T05:38:19.159Z,91.0140
2024-05-09T05:39:28.827Z,90.6691
2024-05-09T05:40:37.562Z,90.3502
2024-05-09T05:41:45.093Z,90.3502
2024-05-09T05:42:51.174Z,90.5959
2024-05-09T05:43:57.331Z,89.7047
2024-05-09T05:45:05.089Z,90.7561
2024-05-09T05:46:12.866Z,91.0872
2024-05-09T05:47:22.108Z,90.2571
2024-05-09T05:48:31.012Z,90.3319
2024-05-09T05:49:37.894Z,90.3685
2024-05-09T05:50:46.006Z,89.8909
2024-05-09T05:51:52.391Z,89.8558
2024-05-09T05:52:58.676Z,90.4494
2024-05-09T05:54:04.887Z,90.7973
2024-05-09T05:55:11.034Z,89.8283
2024-05-09T05:56:17.215Z,90.5745
2024-05-09T05:57:23.348Z,90.7103
2024-05-09T05:58:29.495Z,90.2159
2024-05-09T05:59:36.442Z,89.6269
2024-05-09T06:00:43.423Z,90.2083
2024-05-09T06:01:49.608Z,89.8055
2024-05-09T06:02:55.839Z,89.5659
2024-05-09T06:04:01.918Z,90.2388
2024-05-09T06:05:08.218Z,90.4143
2024-05-09T06:06:14.479Z,90.6844
2024-05-09T06:07:21.433Z,90.9224
2024-05-09T06:08:30.144Z,90.6432
2024-05-09T06:09:36.958Z,89.9840
2024-05-09T06:10:43.122Z,90.2998
2024-05-09T06:11:49.472Z,89.7734
2024-05-09T06:12:55.555Z,88.9754
2024-05-09T06:14:01.673Z,89.3324
2024-05-09T06:15:07.704Z,89.5247
2024-05-09T06:16:13.811Z,89.7871
2024-05-09T06:17:20.038Z,90.5638
2024-05-09T06:18:26.649Z,90.1564
2024-05-09T06:19:33.205Z,89.3736
2024-05-09T06:20:39.978Z,89.9290
2024-05-09T06:21:48.451Z,89.2592
2024-05-09T06:22:55.183Z,89.3462
2024-05-09T06:24:10.576Z,88.5603
2024-05-09T06:25:39.344Z,88.0049
2024-05-09T06:26:46.042Z,89.1539
2024-05-09T06:27:52.137Z,88.8426
2024-05-09T06:28:58.334Z,88.7663
2024-05-09T06:30:05.201Z,87.2908
2024-05-09T06:31:11.483Z,87.3793
2024-05-09T06:32:18.108Z,88.3207
2024-05-09T06:33:24.610Z,86.8620
2024-05-09T06:34:30.902Z,86.7185
2024-05-09T06:35:40.203Z,86.8162
2024-05-09T06:36:46.600Z,86.7323
2024-05-09T06:37:52.828Z,87.4571
2024-05-09T06:38:58.962Z,87.1855
2024-05-09T06:40:10.069Z,86.8376
2024-05-09T06:41:17.069Z,86.2791
2024-05-09T06:42:23.682Z,86.0044
2024-05-09T06:43:29.894Z,86.6453
2024-05-09T06:44:36.093Z,86.9062
2024-05-09T06:45:42.391Z,86.4317
2024-05-09T06:46:48.563Z,86.3264
2024-05-09T06:48:01.605Z,86.4271
2024-05-09T06:49:09.309Z,86.1845
2024-05-09T06:50:23.912Z,85.6062
2024-05-09T06:51:33.567Z,86.8330
2024-05-09T06:52:43.235Z,85.1316
2024-05-09T06:53:49.636Z,84.9104
2024-05-09T06:54:57.058Z,84.9012
2024-05-09T06:56:26.259Z,84.8661
2024-05-09T06:58:05.378Z,84.9393
2024-05-09T06:59:11.913Z,84.7425
2024-05-09T07:00:26.801Z,86.0548
2024-05-09T07:01:31.063Z,85.2125
2024-05-09T07:02:37.723Z,85.5619
2024-05-09T07:03:45.268Z,85.2216
2024-05-09T07:04:54.763Z,86.2715
2024-05-09T07:06:04.483Z,85.5970
2024-05-09T07:09:06.093Z,85.5299
2024-05-09T07:10:18.063Z,85.4139
2024-05-09T07:11:31.593Z,84.6876
2024-05-09T07:12:40.747Z,84.4083
2024-05-09T07:13:49.513Z,84.5350
2024-05-09T07:14:55.701Z,84.3748
2024-05-09T07:16:04.759Z,84.5808
2024-05-09T07:17:11.504Z,84.2115
2024-05-09T07:18:19.916Z,84.6861
2024-05-09T07:19:27.034Z,85.4459
2024-05-09T07:20:34.977Z,83.7674
2024-05-09T07:21:45.069Z,83.5782
2024-05-09T07:22:53.933Z,83.7110
2024-05-09T07:24:03.294Z,84.6037
2024-05-09T07:25:10.783Z,83.8849
2024-05-09T07:26:18.818Z,82.9847
2024-05-09T07:27:26.685Z,84.0085
2024-05-09T07:28:33.203Z,83.5965
2024-05-09T07:29:40.089Z,83.7491
2024-05-09T07:30:47.524Z,83.4730
2024-05-09T07:31:53.684Z,82.7634
2024-05-09T07:33:00.720Z,83.1342
2024-05-09T07:34:07.389Z,82.9694
2024-05-09T07:35:15.816Z,82.7009
2024-05-09T07:36:22.546Z,83.0381
2024-05-09T07:37:29.390Z,82.4063
2024-05-09T07:38:36.669Z,83.4638
2024-05-09T07:39:43.364Z,83.6072
2024-05-09T07:40:49.748Z,82.8611
2024-05-09T07:41:56.584Z,83.0808
2024-05-09T07:43:03.104Z,82.8000
2024-05-09T07:44:09.377Z,82.9755
2024-05-09T07:45:38.960Z,82.4491
2024-05-09T07:47:36.441Z,82.8733
2024-05-09T07:49:11.994Z,83.2547
2024-05-09T07:50:35.274Z,81.6068
2024-05-09T07:52:22.652Z,81.4313
2024-05-09T07:53:32.469Z,82.3514
2024-05-09T07:53:44.763Z,81.8708
2024-05-09T07:54:53.218Z,82.5391
2024-05-09T07:55:59.645Z,82.8016
2024-05-09T07:57:05.957Z,82.6871
2024-05-09T07:58:12.166Z,82.0371
2024-05-09T07:59:18.448Z,83.3326
2024-05-09T08:00:30.850Z,81.7014
2024-05-09T08:01:38.107Z,82.2873
2024-05-09T08:02:45.936Z,81.8677
2024-05-09T08:03:52.712Z,82.0493
2024-05-09T08:04:59.712Z,81.2070
2024-05-09T08:06:05.952Z,81.1994
2024-05-09T08:07:12.283Z,81.6251
2024-05-09T08:08:18.547Z,81.1582
2024-05-09T08:09:24.942Z,81.1398
2024-05-09T08:10:31.136Z,80.0092
2024-05-09T08:11:37.791Z,80.1968
2024-05-09T08:12:44.208Z,80.9018
2024-05-09T08:13:50.473Z,80.8560
2024-05-09T08:14:56.911Z,80.6409
2024-05-09T08:16:03.613Z,80.9277
2024-05-09T08:17:10.643Z,80.1083
2024-05-09T08:18:17.300Z,81.1658
2024-05-09T08:19:24.557Z,80.3021
2024-05-09T08:20:33.909Z,81.0758
2024-05-09T08:21:43.308Z,80.9049
2024-05-09T08:22:49.738Z,79.6963
2024-05-09T08:23:56.083Z,80.1953
2024-05-09T08:25:02.479Z,81.0437
2024-05-09T08:26:08.748Z,80.1419
2024-05-09T08:27:15.065Z,80.1816
2024-05-09T08:28:21.349Z,80.6348
2024-05-09T08:29:27.630Z,81.2207
2024-05-09T08:30:37.174Z,81.0300
2024-05-09T08:31:44.928Z,81.4496
2024-05-09T08:32:51.162Z,80.9506
2024-05-09T08:33:57.683Z,81.0697
2024-05-09T08:35:04.223Z,81.7975
2024-05-09T08:36:25.078Z,81.1902
2024-05-09T08:37:36.632Z,81.0391
2024-05-09T08:38:43.431Z,81.3947
2024-05-09T08:39:49.768Z,80.9369
2024-05-09T08:40:55.963Z,80.7721
2024-05-09T08:42:02.110Z,81.5885
2024-05-09T08:43:08.606Z,79.8764
2024-05-09T08:44:15.382Z,80.7965
2024-05-09T08:45:21.452Z,80.9186
2024-05-09T08:46:27.690Z,81.4420
2024-05-09T08:47:34.144Z,80.3204
2024-05-09T08:48:40.642Z,79.5239
2024-05-09T08:49:47.677Z,79.3225
2024-05-09T08:50:54.021Z,80.1236
2024-05-09T08:52:00.262Z,80.5249
2024-05-09T08:53:06.599Z,80.6043
2024-05-09T08:54:12.601Z,79.8077
2024-05-09T08:55:18.836Z,79.0433
2024-05-09T08:56:26.087Z,78.2101
2024-05-09T08:57:32.434Z,78.8190
2024-05-09T08:58:38.510Z,79.1760
2024-05-09T08:59:44.624Z,78.8006
2024-05-09T09:00:50.961Z,78.2101
2024-05-09T09:01:57.687Z,77.1145
2024-05-09T09:03:03.946Z,77.3800
2024-05-09T09:04:10.444Z,77.4121
2024-05-09T09:05:16.998Z,78.2925
2024-05-09T09:06:23.285Z,77.6333
2024-05-09T09:07:29.915Z,77.6333
2024-05-09T09:08:36.061Z,77.9889
2024-05-09T09:09:42.269Z,78.5245
2024-05-09T09:10:48.555Z,78.5107
2024-05-09T09:11:54.782Z,78.8037
2024-05-09T09:13:00.988Z,78.4482
2024-05-09T09:14:07.147Z,78.4375
2024-05-09T09:15:13.553Z,78.1094
2024-05-09T09:16:22.709Z,77.8836
2024-05-09T09:17:29.270Z,79.2081
2024-05-09T09:18:35.589Z,78.7305
2024-05-09T09:19:41.916Z,79.1623
2024-05-09T09:20:48.956Z,78.5443
2024-05-09T09:21:56.022Z,79.4415
2024-05-09T09:23:02.585Z,77.9019
2024-05-09T09:24:09.973Z,77.1786
2024-05-09T09:25:16.373Z,77.1878
2024-05-09T09:26:22.735Z,77.5555
2024-05-09T09:27:29.195Z,77.4456
2024-05-09T09:28:35.284Z,77.5189
2024-05-09T09:29:41.518Z,77.9706
2024-05-09T09:30:47.876Z,76.6628
2024-05-09T09:31:56.702Z,76.5667
2024-05-09T09:33:03.353Z,75.6832
2024-05-09T09:34:09.894Z,77.7249
2024-05-09T09:35:16.147Z,77.9034
2024-05-09T09:36:22.558Z,76.5560
2024-05-09T09:37:29.121Z,76.8002
2024-05-09T09:38:35.831Z,76.2554
2024-05-09T09:39:42.098Z,77.1481
2024-05-09T09:40:50.097Z,75.7916
2024-05-09T09:41:56.565Z,77.2946
2024-05-09T09:43:02.817Z,76.4370
2024-05-09T09:44:09.516Z,77.5311
2024-05-09T09:45:15.643Z,75.9243
2024-05-09T09:46:21.813Z,79.6292
2024-05-09T09:47:28.048Z,77.2747
2024-05-09T09:48:34.685Z,75.2438
2024-05-09T09:49:41.464Z,75.1781
2024-05-09T09:50:48.030Z,75.4482
2024-05-09T09:51:54.478Z,75.9899
2024-05-09T09:53:00.828Z,76.4462
2024-05-09T09:54:07.179Z,75.6924
2024-05-09T09:55:14.193Z,74.8012
2024-05-09T09:56:20.351Z,74.4717
2024-05-09T09:57:26.760Z,74.0429
2024-05-09T09:58:32.846Z,74.3084
2024-05-09T09:59:38.887Z,73.2830
2024-05-09T10:00:46.307Z,75.1293
2024-05-09T10:01:52.888Z,73.7575
2024-05-09T10:02:59.562Z,73.6629
2024-05-09T10:04:07.416Z,73.8537
2024-05-09T10:05:13.952Z,72.9122
2024-05-09T10:06:20.420Z,71.6289
2024-05-09T10:07:26.663Z,70.2297
2024-05-09T10:08:33.173Z,71.3130
2024-05-09T10:09:39.415Z,71.6991
2024-05-09T10:10:46.325Z,72.5872
2024-05-09T10:11:59.701Z,70.0450
2024-05-09T10:13:05.911Z,71.3420
2024-05-09T10:14:12.577Z,71.4778
2024-05-09T10:15:18.961Z,69.3004
2024-05-09T10:16:25.722Z,70.8370
2024-05-09T10:17:32.772Z,70.1701
2024-05-09T10:18:39.553Z,70.5776
2024-05-09T10:19:46.259Z,71.2810
2024-05-09T10:20:52.626Z,69.6101
2024-05-09T10:21:58.924Z,70.2510
2024-05-09T10:23:20.215Z,69.5247
2024-05-09T10:24:26.546Z,69.1066
2024-05-09T10:25:32.823Z,69.2988
2024-05-09T10:26:39.099Z,69.3538
2024-05-09T10:27:45.435Z,68.3787
2024-05-09T10:28:51.601Z,67.3808
2024-05-09T10:29:57.829Z,67.3213
2024-05-09T10:31:04.077Z,66.3554
2024-05-09T10:32:10.474Z,68.5573
2024-05-09T10:33:16.665Z,66.6850
2024-05-09T10:34:23.364Z,67.3411
2024-05-09T10:35:29.450Z,67.4830
2024-05-09T10:36:35.770Z,67.7439
2024-05-09T10:37:41.939Z,68.0537
2024-05-09T10:38:48.200Z,67.2709
2024-05-09T10:39:54.474Z,68.5771
2024-05-09T10:41:00.637Z,68.2933
2024-05-09T10:42:07.140Z,67.6875
2024-05-09T10:43:13.348Z,68.4352
2024-05-09T10:44:19.569Z,70.1427
2024-05-09T10:45:25.636Z,70.6401
2024-05-09T10:46:32.057Z,69.7810
2024-05-09T10:47:39.264Z,69.6849
2024-05-09T10:48:45.640Z,69.0745
2024-05-09T10:49:52.674Z,68.9982
2024-05-09T10:50:59.167Z,68.2200
2024-05-09T10:52:05.255Z,69.9809
2024-05-09T10:53:11.451Z,72.3217
2024-05-09T10:54:20.531Z,69.6651
2024-05-09T10:55:26.870Z,70.4128
2024-05-09T10:56:33.141Z,72.0867
2024-05-09T10:57:39.574Z,71.0079
2024-05-09T10:58:45.676Z,73.0220
2024-05-09T10:59:54.641Z,71.0124
2024-05-09T11:01:05.462Z,71.6808
2024-05-09T11:02:14.014Z,69.2943
2024-05-09T11:03:20.851Z,69.4423
2024-05-09T11:04:27.058Z,68.8838
2024-05-09T11:05:33.477Z,68.5756
2024-05-09T11:06:40.408Z,68.2643
2024-05-09T11:07:47.189Z,67.3075
2024-05-09T11:08:53.331Z,67.0527
2024-05-09T11:10:00.104Z,65.8061
2024-05-09T11:11:08.233Z,66.0853
2024-05-09T11:12:15.786Z,66.1234
2024-05-09T11:13:22.420Z,65.0690
2024-05-09T11:14:29.779Z,65.6886
2024-05-09T11:15:36.395Z,65.4719
2024-05-09T11:17:11.317Z,67.9500
2024-05-09T11:18:15.947Z,66.3798
2024-05-09T11:19:20.992Z,67.0710
2024-05-09T11:20:29.739Z,67.1702
2024-05-09T11:21:34.685Z,67.6890
2024-05-09T11:22:38.815Z,67.5319
2024-05-09T11:23:43.321Z,65.3819
2024-05-09T11:24:48.299Z,61.7639
2024-05-09T11:25:52.470Z,61.2558
2024-05-09T11:26:56.538Z,61.3672
2024-05-09T11:28:00.687Z,62.4613
2024-05-09T11:29:05.816Z,61.4313
2024-05-09T11:30:14.457Z,61.1872
2024-05-09T11:31:20.043Z,62.6062
2024-05-09T11:32:24.260Z,62.0020
2024-05-09T11:33:28.912Z,63.0884
2024-05-09T11:34:35.238Z,61.2924
2024-05-09T11:35:39.368Z,62.2309
2024-05-09T11:36:43.579Z,65.2750
2024-05-09T11:37:47.769Z,65.9037
2024-05-09T11:38:52.364Z,67.0848
2024-05-09T11:39:56.628Z,66.5766
2024-05-09T11:41:00.925Z,66.7918
2024-05-09T11:42:05.829Z,67.3396
2024-05-09T11:43:10.127Z,66.1692
2024-05-09T11:44:14.425Z,66.7186
2024-05-09T11:45:18.511Z,67.0375
2024-05-09T11:46:23.510Z,67.0710
2024-05-09T11:47:27.511Z,65.1255
2024-05-09T11:48:31.801Z,65.2155
2024-05-09T11:49:36.190Z,67.8126
2024-05-09T11:50:40.203Z,66.0029
2024-05-09T11:51:44.396Z,65.9632
2024-05-09T11:52:48.466Z,65.0019
2024-05-09T11:53:52.711Z,65.2430
2024-05-09T11:54:56.838Z,66.7414
2024-05-09T11:56:01.065Z,67.0436
2024-05-09T11:57:05.324Z,68.3284
2024-05-09T11:58:09.549Z,68.4581
2024-05-09T11:59:13.719Z,67.9088
2024-05-09T12:00:25.214Z,66.1921
2024-05-09T12:01:28.346Z,66.1540
2024-05-09T12:02:33.083Z,69.3233
2024-05-09T12:03:37.546Z,65.9495
2024-05-09T12:04:41.921Z,65.6794
2024-05-09T12:05:46.447Z,65.2583
2024-05-09T12:06:50.784Z,65.4963
2024-05-09T12:07:56.056Z,66.7689
2024-05-09T12:09:00.240Z,65.5741
2024-05-09T12:10:06.059Z,64.7349
2024-05-09T12:11:14.905Z,64.2054
2024-05-09T12:12:19.060Z,65.0294
2024-05-09T12:13:23.341Z,63.5004
2024-05-09T12:14:27.617Z,65.0065
2024-05-09T12:15:31.924Z,64.2451
2024-05-09T12:16:36.322Z,63.9582
2024-05-09T12:17:40.600Z,64.0497
2024-05-09T12:18:45.620Z,63.4348
2024-05-09T12:19:49.908Z,63.8071
2024-05-09T12:20:54.129Z,64.0070
2024-05-09T12:21:58.454Z,65.4398
2024-05-09T12:23:02.616Z,63.5859
2024-05-09T12:24:06.855Z,64.3275
2024-05-09T12:25:11.889Z,64.8692
2024-05-09T12:26:16.130Z,65.0660
2024-05-09T12:27:21.316Z,64.5945
2024-05-09T12:28:25.642Z,63.7980
2024-05-09T12:29:30.022Z,64.4755
2024-05-09T12:30:38.062Z,64.4846
2024-05-09T12:31:44.504Z,63.7293
2024-05-09T12:32:48.952Z,63.1510
2024-05-09T12:33:53.323Z,62.0432
2024-05-09T12:34:57.764Z,61.7655
2024-05-09T12:36:02.015Z,60.6332
2024-05-09T12:37:06.218Z,59.9832
2024-05-09T12:38:11.265Z,61.4221
2024-05-09T12:39:15.548Z,62.0813
2024-05-09T12:40:31.831Z,59.6963
2024-05-09T12:41:59.919Z,57.9431
2024-05-09T12:43:09.997Z,58.4222
2024-05-09T12:44:18.058Z,58.9319
2024-05-09T12:45:23.274Z,59.1058
2024-05-09T12:46:36.802Z,60.1816
2024-05-09T12:47:50.557Z,58.6877
2024-05-09T12:49:07.336Z,58.3627
2024-05-09T12:50:29.876Z,59.1974
2024-05-09T12:51:32.345Z,59.9420
2024-05-09T12:52:39.299Z,59.7238
2024-05-09T12:54:04.169Z,60.6851
2024-05-09T12:55:16.614Z,60.7797
2024-05-09T12:56:30.315Z,61.4801
2024-05-09T12:57:44.816Z,59.1684
2024-05-09T12:58:59.080Z,59.8230
2024-05-09T13:00:14.176Z,61.7502
2024-05-09T13:01:24.178Z,61.6999
2024-05-09T13:02:34.052Z,61.7609
2024-05-09T13:03:45.989Z,61.3672
2024-05-09T13:05:07.809Z,61.0544
2024-05-09T13:06:12.133Z,62.0981
2024-05-09T13:07:18.941Z,62.0798
2024-05-09T13:08:23.271Z,61.1872
2024-05-09T13:09:28.914Z,59.8550
2024-05-09T13:10:33.768Z,61.5595
2024-05-09T13:11:38.514Z,59.5270
2024-05-09T13:12:44.667Z,58.8754
2024-05-09T13:13:49.286Z,59.7147
2024-05-09T13:14:55.024Z,58.2712
2024-05-09T13:16:00.430Z,59.8093
2024-05-09T13:17:04.519Z,59.8566
2024-05-09T13:18:10.491Z,57.7264
2024-05-09T13:19:15.500Z,58.1903
2024-05-09T13:20:29.118Z,54.0642
2024-05-09T13:21:30.648Z,56.1715
2024-05-09T13:22:34.830Z,54.6334
2024-05-09T13:23:39.450Z,55.2407
2024-05-09T13:24:43.867Z,55.0637
2024-05-09T13:25:48.424Z,57.8286
2024-05-09T13:26:52.865Z,57.5662
2024-05-09T13:27:57.794Z,58.5504
2024-05-09T13:29:02.535Z,58.4741
2024-05-09T13:30:11.873Z,57.9232
2024-05-09T13:31:18.423Z,57.8180
2024-05-09T13:32:23.292Z,56.8933
2024-05-09T13:33:28.255Z,57.7096
2024-05-09T13:34:32.846Z,58.2528
2024-05-09T13:35:38.277Z,57.7996
2024-05-09T13:36:42.883Z,59.9893
2024-05-09T13:37:48.667Z,60.0473
2024-05-09T13:38:53.093Z,58.4100
2024-05-09T13:39:58.152Z,57.7783
2024-05-09T13:41:02.786Z,59.0539
2024-05-09T13:42:07.501Z,57.8424
2024-05-09T13:43:12.366Z,58.5473
2024-05-09T13:44:17.237Z,59.7009
2024-05-09T13:45:21.383Z,58.1491
2024-05-09T13:46:25.886Z,59.0463
2024-05-09T13:47:32.163Z,56.6278
2024-05-09T13:48:36.774Z,56.6552
2024-05-09T13:49:42.181Z,56.7712
2024-05-09T13:50:47.458Z,57.5265
2024-05-09T13:51:52.009Z,57.8088
2024-05-09T13:52:56.479Z,58.1582
2024-05-09T13:54:00.737Z,59.8413
2024-05-09T13:55:05.101Z,58.5016
2024-05-09T13:56:10.126Z,59.0646
2024-05-09T13:57:17.400Z,59.9664
2024-05-09T13:58:23.050Z,59.8047
2024-05-09T13:59:31.379Z,60.1663
2024-05-09T14:00:44.358Z,59.9970
2024-05-09T14:01:47.203Z,60.3281
2024-05-09T14:02:51.948Z,58.1125
2024-05-09T14:03:58.045Z,57.6272
2024-05-09T14:05:02.621Z,59.1882
2024-05-09T14:06:09.432Z,57.2320
2024-05-09T14:07:17.978Z,57.2549
2024-05-09T14:08:23.702Z,59.2874
2024-05-09T14:09:28.475Z,58.1949
2024-05-09T14:10:33.797Z,59.1730
2024-05-09T14:11:38.689Z,57.5631
2024-05-09T14:12:42.974Z,58.5092
2024-05-09T14:13:48.102Z,60.3586
2024-05-09T14:14:52.339Z,59.8154
2024-05-09T14:15:56.804Z,58.0560
2024-05-09T14:17:01.294Z,59.4446
2024-05-09T14:18:08.107Z,58.6389
2024-05-09T14:19:14.320Z,58.8403
2024-05-09T14:20:28.301Z,59.6902
2024-05-09T14:21:29.741Z,59.1928
2024-05-09T14:22:34.450Z,60.1999
2024-05-09T14:23:39.368Z,59.6185
2024-05-09T14:24:45.664Z,57.1588
2024-05-09T14:25:51.973Z,56.6293
2024-05-09T14:26:57.167Z,57.5387
2024-05-09T14:28:01.485Z,57.3251
2024-05-09T14:29:06.392Z,56.0098
2024-05-09T14:30:18.138Z,52.0699
2024-05-09T14:31:21.067Z,53.8094
2024-05-09T14:32:25.247Z,52.2621
2024-05-09T14:33:31.097Z,49.0791
2024-05-09T14:36:47.627Z,47.7836
2024-05-09T14:38:06.869Z,53.0037
2024-05-09T14:39:37.228Z,54.8440
2024-05-09T14:41:19.979Z,57.3892
2024-05-09T14:42:25.645Z,55.5154
2024-05-09T14:43:35.121Z,56.8353
2024-05-09T14:44:52.194Z,57.2274
2024-05-09T14:45:58.769Z,56.5927
2024-05-09T14:47:07.948Z,58.8388
2024-05-09T14:48:15.326Z,56.9162
2024-05-09T14:49:22.825Z,58.2589
2024-05-09T14:50:38.794Z,57.3236
2024-05-09T14:51:49.571Z,54.9706
2024-05-09T14:52:54.610Z,56.1013
2024-05-09T14:54:00.730Z,56.5545
2024-05-09T14:55:16.971Z,56.1791
2024-05-09T14:56:27.599Z,57.0413
2024-05-09T14:57:34.728Z,56.1990
2024-05-09T14:58:41.554Z,53.4600
2024-05-09T14:59:47.103Z,56.4782
2024-05-09T15:00:58.212Z,54.2657
2024-05-09T15:02:13.161Z,54.0612
2024-05-09T15:03:26.933Z,55.5306